Time;durP1;ratioP1;P1;durP2;ratioP2;P2;SDS_P1;SDS_P2;PMS_P1;PMS_P2;Temp;Humidity;BMP_temperature;BMP_pressure;BME280_temperature;BME280_humidity;BME280_pressure;Samples;Min_cycle;Max_cycle;Signal;HPM_P1;HPM_P2
2022/07/28 00:00:29;;;;;;;3.58;2.38;;;13.80;77.40;;;;;;5112283;28;20119;-76
2022/07/28 00:02:55;;;;;;;3.10;2.05;;;13.70;77.40;;;;;;5078651;28;20043;-78
2022/07/28 00:05:20;;;;;;;5.55;2.25;;;13.70;77.40;;;;;;5078324;28;20099;-77
2022/07/28 00:07:46;;;;;;;4.50;2.35;;;13.60;77.50;;;;;;5078321;28;20039;-73
2022/07/28 00:10:12;;;;;;;3.85;2.30;;;13.60;77.60;;;;;;5078436;28;20040;-76
2022/07/28 00:12:38;;;;;;;4.78;2.53;;;13.70;77.60;;;;;;5078485;28;20048;-74
2022/07/28 00:15:05;;;;;;;3.55;2.10;;;13.60;77.60;;;;;;5078221;28;20043;-76
2022/07/28 00:17:31;;;;;;;6.60;2.80;;;13.60;77.60;;;;;;5094870;28;20051;-74
2022/07/28 00:19:57;;;;;;;6.18;2.55;;;13.60;77.60;;;;;;5112034;28;20035;-76
2022/07/28 00:22:22;;;;;;;5.25;2.30;;;13.60;77.80;;;;;;5095025;28;20036;-75
2022/07/28 00:24:48;;;;;;;3.70;2.17;;;13.60;77.90;;;;;;5111907;28;20442;-77
2022/07/28 00:27:15;;;;;;;3.40;2.00;;;13.50;77.90;;;;;;5078267;28;20127;-76
2022/07/28 00:29:41;;;;;;;4.13;2.53;;;13.60;77.90;;;;;;5111945;28;20051;-76
2022/07/28 00:32:07;;;;;;;4.72;1.98;;;13.60;78.10;;;;;;5095145;28;20066;-75
2022/07/28 00:34:33;;;;;;;3.30;2.17;;;13.50;78.10;;;;;;5111892;28;20438;-76
2022/07/28 00:36:58;;;;;;;3.08;2.10;;;13.50;78.40;;;;;;5111596;28;20062;-75
2022/07/28 00:39:24;;;;;;;3.30;2.00;;;13.50;78.50;;;;;;5112091;28;20097;-76
2022/07/28 00:41:50;;;;;;;3.83;1.85;;;13.50;78.50;;;;;;5111839;28;20479;-75
2022/07/28 00:44:15;;;;;;;5.68;2.40;;;13.60;78.70;;;;;;5111829;28;20376;-77
2022/07/28 00:46:42;;;;;;;3.88;2.10;;;13.60;78.70;;;;;;5111644;28;20311;-77
2022/07/28 00:49:08;;;;;;;3.15;2.38;;;13.50;78.80;;;;;;5078203;28;20048;-76
2022/07/28 00:51:34;;;;;;;4.50;2.33;;;13.60;78.90;;;;;;5111716;28;20509;-74
2022/07/28 00:54:00;;;;;;;5.65;2.22;;;13.60;79.00;;;;;;5111709;28;20047;-76
2022/07/28 00:56:26;;;;;;;3.97;2.67;;;13.50;79.00;;;;;;5111543;28;20048;-77
2022/07/28 00:58:52;;;;;;;4.47;2.38;;;13.50;79.10;;;;;;5111898;28;20043;-77
2022/07/28 01:01:18;;;;;;;3.97;2.30;;;13.50;79.20;;;;;;5111576;28;20043;-75
2022/07/28 01:03:50;;;;;;;4.18;2.25;;;13.50;79.20;;;;;;5111857;28;20520;-77
2022/07/28 01:06:37;;;;;;;3.63;2.05;;;13.50;79.10;;;;;;5094761;28;20085;-77
2022/07/28 01:09:08;;;;;;;3.05;2.30;;;13.50;79.20;;;;;;5094827;28;20079;-75
2022/07/28 01:11:59;;;;;;;6.20;2.60;;;13.50;79.20;;;;;;5114931;28;20401;-77
2022/07/28 01:14:46;;;;;;;4.80;2.45;;;13.60;79.70;;;;;;5081339;28;20050;-76
2022/07/28 01:17:36;;;;;;;6.65;2.55;;;13.50;79.70;;;;;;5115168;28;20574;-76
2022/07/28 01:20:19;;;;;;;3.80;2.13;;;13.50;79.70;;;;;;5115149;28;20032;-75
2022/07/28 01:23:20;;;;;;;4.85;2.30;;;13.50;79.90;;;;;;5115181;28;20515;-77
2022/07/28 01:26:07;;;;;;;5.60;2.38;;;13.50;79.90;;;;;;5093061;28;20054;-76
2022/07/28 01:28:58;;;;;;;5.00;2.25;;;13.40;80.00;;;;;;5115010;28;20039;-75
2022/07/28 01:31:26;;;;;;;5.05;2.67;;;13.40;80.00;;;;;;5097989;28;20062;-75
2022/07/28 01:34:01;;;;;;;4.45;2.67;;;13.30;79.90;;;;;;5098067;28;20096;-75
2022/07/28 01:36:32;;;;;;;6.20;2.33;;;13.30;80.00;;;;;;5114808;28;20055;-76
2022/07/28 01:38:59;;;;;;;5.68;2.30;;;13.30;80.00;;;;;;5114834;28;20040;-75
2022/07/28 01:41:28;;;;;;;5.35;1.95;;;13.30;79.90;;;;;;5114992;28;20483;-73
2022/07/28 01:43:58;;;;;;;4.05;2.05;;;13.30;79.90;;;;;;5114713;28;20048;-75
2022/07/28 01:46:25;;;;;;;4.55;2.22;;;13.30;80.00;;;;;;5114575;28;20047;-74
2022/07/28 01:48:53;;;;;;;5.97;2.30;;;13.30;79.90;;;;;;5097888;28;20419;-74
2022/07/28 01:51:21;;;;;;;3.35;2.25;;;13.30;79.90;;;;;;5080552;28;20039;-74
2022/07/28 01:53:50;;;;;;;3.88;2.20;;;13.30;79.90;;;;;;5114503;28;20564;-76
2022/07/28 01:56:19;;;;;;;4.45;2.33;;;13.30;79.90;;;;;;5097293;28;20082;-74
2022/07/28 01:58:47;;;;;;;4.13;2.22;;;13.20;79.80;;;;;;5097356;28;20054;-74
2022/07/28 02:01:15;;;;;;;4.53;2.05;;;13.30;79.80;;;;;;5080786;28;20399;-74
2022/07/28 02:03:43;;;;;;;5.15;2.15;;;13.20;79.80;;;;;;5097354;28;20044;-74
2022/07/28 02:06:11;;;;;;;6.75;2.60;;;13.20;79.70;;;;;;5114184;28;20040;-75
2022/07/28 02:08:39;;;;;;;4.55;2.33;;;13.30;79.80;;;;;;5097504;28;20040;-76
2022/07/28 02:13:52;;;;;;;3.70;2.60;;;13.20;79.90;;;;;;5114162;28;20050;-73
2022/07/28 02:16:21;;;;;;;4.47;2.70;;;13.20;80.00;;;;;;5079962;28;20051;-76
2022/07/28 02:18:49;;;;;;;6.40;3.00;;;13.20;80.10;;;;;;5080145;28;20078;-74
2022/07/28 02:21:16;;;;;;;4.53;2.60;;;13.20;80.30;;;;;;5079926;28;20059;-74
2022/07/28 02:23:46;;;;;;;3.78;2.78;;;13.20;80.80;;;;;;5113932;28;20159;-73
2022/07/28 02:26:13;;;;;;;4.82;3.00;;;13.20;80.90;;;;;;5080342;28;20493;-75
2022/07/28 02:28:42;;;;;;;3.60;2.67;;;13.30;81.40;;;;;;5080071;28;20054;-74
2022/07/28 02:31:21;;;;;;;2.85;2.38;;;13.30;81.30;;;;;;5113646;28;20507;-73
2022/07/28 02:33:47;;;;;;;5.28;3.03;;;13.30;81.40;;;;;;5113767;28;20043;-74
2022/07/28 02:36:27;;;;;;;3.25;2.40;;;13.20;81.60;;;;;;5113826;28;20047;-76
2022/07/28 02:38:55;;;;;;;3.83;2.65;;;13.20;81.80;;;;;;5113645;28;20514;-76
2022/07/28 02:41:31;;;;;;;3.58;2.58;;;13.20;82.00;;;;;;5113502;28;20046;-76
2022/07/28 02:44:00;;;;;;;6.05;2.95;;;13.20;82.20;;;;;;5096805;28;20586;-73
2022/07/28 02:46:34;;;;;;;2.88;2.60;;;13.30;82.50;;;;;;5113399;28;20310;-77
2022/07/28 02:49:05;;;;;;;5.80;3.33;;;13.30;82.50;;;;;;5113503;28;20044;-75
2022/07/28 02:51:33;;;;;;;3.00;2.20;;;13.20;82.20;;;;;;5096408;28;20122;-75
2022/07/28 02:53:59;;;;;;;5.07;2.65;;;13.20;82.40;;;;;;5096268;28;20074;-76
2022/07/28 02:56:27;;;;;;;3.95;2.53;;;13.20;82.40;;;;;;5096110;28;20046;-72
2022/07/28 02:58:53;;;;;;;5.40;2.72;;;13.10;82.30;;;;;;5096260;28;20035;-77
2022/07/28 03:01:20;;;;;;;3.55;3.00;;;13.10;82.40;;;;;;5096187;28;20502;-74
2022/07/28 03:03:47;;;;;;;3.95;2.58;;;13.00;82.30;;;;;;5113388;28;20422;-76
2022/07/28 03:06:15;;;;;;;3.40;2.70;;;12.90;82.40;;;;;;5096054;28;20479;-76
2022/07/28 03:08:42;;;;;;;2.60;2.15;;;12.80;82.60;;;;;;5079379;28;20045;-73
2022/07/28 03:11:12;;;;;;;2.95;2.00;;;12.70;82.70;;;;;;5114438;28;20455;-74
2022/07/28 03:13:38;;;;;;;3.67;2.13;;;12.70;82.80;;;;;;5112942;28;20078;-74
2022/07/28 03:16:05;;;;;;;3.60;2.28;;;12.70;83.10;;;;;;5095874;28;20491;-74
2022/07/28 03:18:31;;;;;;;2.70;2.15;;;12.70;83.00;;;;;;5112862;28;20074;-72
2022/07/28 03:20:57;;;;;;;3.95;2.13;;;12.70;83.00;;;;;;5113101;28;20418;-73
2022/07/28 03:23:33;;;;;;;3.17;1.70;;;12.60;82.90;;;;;;5113070;28;20044;-76
2022/07/28 03:26:10;;;;;;;3.67;1.50;;;12.60;82.90;;;;;;5113016;28;20388;-75
2022/07/28 03:28:37;;;;;;;5.03;2.30;;;12.60;83.00;;;;;;5112804;28;20043;-72
2022/07/28 03:31:08;;;;;;;4.65;1.85;;;12.60;83.10;;;;;;5112554;28;20067;-74
2022/07/28 03:33:34;;;;;;;4.45;1.98;;;12.70;83.10;;;;;;5095279;28;20069;-74
2022/07/28 03:36:04;;;;;;;4.00;1.80;;;12.60;83.10;;;;;;5112234;28;20040;-73
2022/07/28 03:38:37;;;;;;;4.43;2.50;;;12.60;83.20;;;;;;5078525;28;20051;-72
2022/07/28 03:41:06;;;;;;;3.08;2.30;;;12.70;83.00;;;;;;5095110;28;20047;-75
2022/07/28 03:43:33;;;;;;;4.90;2.20;;;12.60;83.10;;;;;;5112222;28;20039;-74
2022/07/28 03:45:59;;;;;;;2.88;2.25;;;12.60;83.20;;;;;;5095605;28;20035;-73
2022/07/28 03:48:29;;;;;;;4.03;2.40;;;12.60;83.10;;;;;;5095353;28;20403;-74
2022/07/28 03:50:55;;;;;;;3.70;2.00;;;12.70;83.20;;;;;;5095360;28;20046;-72
2022/07/28 03:53:24;;;;;;;4.88;2.15;;;12.60;83.20;;;;;;5112527;28;20457;-76
2022/07/28 03:55:50;;;;;;;3.17;2.22;;;12.60;83.10;;;;;;5095228;28;20044;-76
2022/07/28 03:58:21;;;;;;;3.05;2.15;;;12.60;83.10;;;;;;5112291;28;20046;-73
2022/07/28 04:00:48;;;;;;;4.82;2.53;;;12.60;83.20;;;;;;5112472;28;20387;-74
2022/07/28 04:03:15;;;;;;;3.55;2.25;;;12.60;83.40;;;;;;5095242;28;20055;-75
2022/07/28 04:05:41;;;;;;;3.17;1.80;;;12.60;83.40;;;;;;5112056;28;20071;-73
2022/07/28 04:08:06;;;;;;;5.55;3.00;;;12.60;83.30;;;;;;5095177;28;20344;-75
2022/07/28 04:10:32;;;;;;;3.95;2.22;;;12.60;83.40;;;;;;5112151;28;20380;-74
2022/07/28 04:12:58;;;;;;;2.90;2.08;;;12.60;83.40;;;;;;5112108;28;20043;-74
2022/07/28 04:15:25;;;;;;;2.78;2.10;;;12.60;83.50;;;;;;5111969;28;20051;-76
2022/07/28 04:17:52;;;;;;;3.78;2.58;;;12.60;83.50;;;;;;5078210;28;20518;-75
2022/07/28 04:20:20;;;;;;;3.08;2.50;;;12.60;83.40;;;;;;5095320;28;20035;-75
2022/07/28 04:22:46;;;;;;;3.88;2.13;;;12.60;83.60;;;;;;5095005;28;20123;-73
2022/07/28 04:25:14;;;;;;;2.50;2.17;;;12.60;83.60;;;;;;5078186;28;20080;-75
2022/07/28 04:27:43;;;;;;;4.95;2.72;;;12.50;83.70;;;;;;5078249;28;20093;-75
2022/07/28 04:30:13;;;;;;;3.75;2.30;;;12.50;83.80;;;;;;5077981;28;20051;-75
2022/07/28 04:32:39;;;;;;;3.28;2.58;;;12.50;83.90;;;;;;5094913;28;20483;-74
2022/07/28 04:35:09;;;;;;;2.95;2.33;;;12.50;84.00;;;;;;5094806;28;20649;-74
2022/07/28 04:37:36;;;;;;;3.72;2.50;;;12.50;84.10;;;;;;5077975;28;20104;-74
2022/07/28 04:40:02;;;;;;;4.50;2.50;;;12.50;84.30;;;;;;5111850;28;20047;-76
2022/07/28 04:42:28;;;;;;;5.38;2.53;;;12.50;84.50;;;;;;5078210;28;20039;-77
2022/07/28 04:44:54;;;;;;;5.15;2.72;;;12.60;84.80;;;;;;5112325;28;20411;-76
2022/07/28 04:47:20;;;;;;;4.10;2.72;;;12.60;84.60;;;;;;5115805;28;20513;-75
2022/07/28 04:49:46;;;;;;;3.28;2.80;;;12.60;84.50;;;;;;5081842;28;20051;-75
2022/07/28 04:52:12;;;;;;;5.40;3.45;;;12.60;84.40;;;;;;5098688;28;20046;-73
2022/07/28 04:54:38;;;;;;;5.18;2.75;;;12.60;84.40;;;;;;5115624;28;20069;-77
2022/07/28 04:57:04;;;;;;;4.43;2.70;;;12.70;84.50;;;;;;5115384;28;20048;-73
2022/07/28 04:59:30;;;;;;;5.63;2.88;;;12.70;84.40;;;;;;5115809;28;20100;-74
2022/07/28 05:01:56;;;;;;;4.15;3.08;;;12.70;84.60;;;;;;5115835;28;20395;-75
2022/07/28 05:04:22;;;;;;;5.20;2.90;;;12.70;84.70;;;;;;5098461;28;20528;-76
2022/07/28 05:06:48;;;;;;;2.22;1.70;;;12.80;84.80;;;;;;5115403;28;20055;-76
2022/07/28 05:09:14;;;;;;;1.70;1.50;;;13.00;84.60;;;;;;5115615;28;20040;-74
2022/07/28 05:11:40;;;;;;;3.20;1.55;;;13.00;84.30;;;;;;5115323;28;20452;-76
2022/07/28 05:14:06;;;;;;;6.35;2.35;;;13.10;84.10;;;;;;5081489;28;20039;-75
2022/07/28 05:16:31;;;;;;;7.00;2.80;;;13.30;83.80;;;;;;5098316;28;20414;-74
2022/07/28 05:18:57;;;;;;;4.20;2.42;;;13.40;83.90;;;;;;5098400;28;20036;-75
2022/07/28 05:21:23;;;;;;;7.32;2.33;;;13.50;83.50;;;;;;5081342;28;20039;-73
2022/07/28 05:23:49;;;;;;;3.83;2.70;;;13.70;83.70;;;;;;5081569;28;20048;-75
2022/07/28 05:26:14;;;;;;;2.42;2.00;;;13.80;84.20;;;;;;5115235;28;20196;-77
2022/07/28 05:28:40;;;;;;;2.20;1.77;;;13.80;83.80;;;;;;5115281;28;20472;-76
2022/07/28 05:31:09;;;;;;;4.20;2.40;;;14.00;83.30;;;;;;5114815;28;20062;-74
2022/07/28 05:33:35;;;;;;;3.20;2.33;;;14.10;82.90;;;;;;5098211;28;20051;-75
2022/07/28 05:36:01;;;;;;;3.60;2.33;;;14.20;82.90;;;;;;5115016;28;20043;-74
2022/07/28 05:38:29;;;;;;;5.43;2.78;;;14.30;83.40;;;;;;5114888;28;20118;-74
2022/07/28 05:40:55;;;;;;;6.47;2.80;;;14.40;83.40;;;;;;5114753;28;20052;-73
2022/07/28 05:43:21;;;;;;;3.60;2.42;;;14.40;84.60;;;;;;5114748;28;20039;-74
2022/07/28 05:45:47;;;;;;;4.30;2.83;;;14.40;83.80;;;;;;5114841;28;20043;-75
2022/07/28 05:48:15;;;;;;;3.67;2.53;;;14.40;84.20;;;;;;5081183;28;20035;-77
2022/07/28 05:50:41;;;;;;;5.18;2.10;;;14.50;84.60;;;;;;5114615;28;20071;-76
2022/07/28 05:53:07;;;;;;;4.78;3.47;;;14.50;84.20;;;;;;5114537;28;20070;-76
2022/07/28 05:55:33;;;;;;;5.80;2.60;;;14.60;84.80;;;;;;5114306;28;20042;-76
2022/07/28 05:57:59;;;;;;;5.30;1.55;;;14.60;84.90;;;;;;5063922;28;20039;-74
2022/07/28 06:00:25;;;;;;;8.18;2.22;;;14.60;84.60;;;;;;5114379;28;20051;-74
2022/07/28 06:02:51;;;;;;;4.65;2.00;;;14.70;84.20;;;;;;5097390;28;20035;-74
2022/07/28 06:05:19;;;;;;;5.13;2.22;;;14.80;83.80;;;;;;5114515;28;20039;-75
2022/07/28 06:07:46;;;;;;;5.25;1.73;;;14.90;83.50;;;;;;5114213;28;20040;-74
2022/07/28 06:10:16;;;;;;;4.35;1.58;;;14.90;82.90;;;;;;5080357;28;20051;-76
2022/07/28 06:12:47;;;;;;;3.45;1.60;;;15.00;82.70;;;;;;5097199;28;20195;-76
2022/07/28 06:15:14;;;;;;;5.20;1.60;;;15.20;82.40;;;;;;5097419;28;20043;-78
2022/07/28 06:17:41;;;;;;;4.10;1.60;;;15.30;82.30;;;;;;5097022;28;20507;-75
2022/07/28 06:20:08;;;;;;;4.85;2.20;;;15.40;82.10;;;;;;5114342;28;20031;-75
2022/07/28 06:22:45;;;;;;;4.82;2.25;;;15.50;81.70;;;;;;5080036;28;20036;-74
2022/07/28 06:25:13;;;;;;;4.70;1.70;;;15.60;81.50;;;;;;5097097;28;20050;-75
2022/07/28 06:27:39;;;;;;;4.40;2.17;;;15.70;81.30;;;;;;5096794;28;20079;-76
2022/07/28 06:30:06;;;;;;;6.13;2.05;;;15.70;80.50;;;;;;5096771;28;20148;-75
2022/07/28 06:32:31;;;;;;;7.30;2.15;;;15.80;80.10;;;;;;5113773;28;20047;-75
2022/07/28 06:34:57;;;;;;;4.85;1.80;;;15.90;80.00;;;;;;5113644;28;20184;-74
2022/07/28 06:37:22;;;;;;;9.32;2.20;;;16.00;79.80;;;;;;5063215;28;20044;-77
2022/07/28 06:39:48;;;;;;;9.48;1.98;;;16.20;79.80;;;;;;5113683;28;20066;-74
2022/07/28 06:42:14;;;;;;;3.70;2.05;;;16.30;79.50;;;;;;5113567;28;20046;-74
2022/07/28 06:44:39;;;;;;;5.93;1.70;;;16.30;78.40;;;;;;5113565;28;20066;-75
2022/07/28 06:47:05;;;;;;;6.75;2.25;;;16.40;78.70;;;;;;5113473;28;20044;-75
2022/07/28 06:49:30;;;;;;;3.38;1.30;;;16.50;78.00;;;;;;5113453;28;20051;-75
2022/07/28 06:51:56;;;;;;;3.17;0.90;;;16.50;77.60;;;;;;5079587;28;20123;-75
2022/07/28 06:54:22;;;;;;;2.85;0.88;;;16.60;76.30;;;;;;5113364;28;20074;-75
2022/07/28 06:56:48;;;;;;;3.53;1.23;;;16.70;76.60;;;;;;5113230;28;20047;-75
2022/07/28 06:59:14;;;;;;;4.00;1.00;;;16.70;76.30;;;;;;5113499;28;20043;-74
2022/07/28 07:01:40;;;;;;;2.28;0.82;;;16.80;76.30;;;;;;5113203;28;20040;-75
2022/07/28 07:04:08;;;;;;;5.85;1.58;;;16.90;76.20;;;;;;5113460;28;20043;-76
2022/07/28 07:06:34;;;;;;;3.15;1.13;;;16.90;75.80;;;;;;5113358;28;20043;-77
2022/07/28 07:09:00;;;;;;;3.30;0.90;;;16.90;76.00;;;;;;5112556;28;20040;-76
2022/07/28 07:11:26;;;;;;;3.90;1.20;;;17.00;76.10;;;;;;5113017;28;20093;-75
2022/07/28 07:13:52;;;;;;;4.43;1.10;;;17.00;75.60;;;;;;5113222;28;20047;-76
2022/07/28 07:16:18;;;;;;;3.15;1.35;;;17.10;75.50;;;;;;5079259;28;20457;-75
2022/07/28 07:18:44;;;;;;;2.58;0.88;;;17.10;75.30;;;;;;5095846;28;20043;-77
2022/07/28 07:21:10;;;;;;;2.97;1.13;;;17.20;74.40;;;;;;5112932;28;20050;-77
2022/07/28 07:23:35;;;;;;;2.97;1.67;;;17.30;74.50;;;;;;5112768;28;20130;-74
2022/07/28 07:26:02;;;;;;;2.70;1.20;;;17.30;74.50;;;;;;5112732;28;20121;-77
2022/07/28 07:28:28;;;;;;;2.83;1.00;;;17.40;73.90;;;;;;5112732;28;20058;-76
2022/07/28 07:30:54;;;;;;;3.80;1.00;;;17.40;73.40;;;;;;5078654;28;20074;-74
2022/07/28 07:33:19;;;;;;;1.83;1.00;;;17.40;73.50;;;;;;5078776;28;20100;-75
2022/07/28 07:35:45;;;;;;;4.03;1.02;;;17.40;73.20;;;;;;5112488;28;20399;-75
2022/07/28 07:38:11;;;;;;;4.05;1.00;;;17.50;72.80;;;;;;5112526;28;20042;-78
2022/07/28 07:40:37;;;;;;;2.40;1.00;;;17.50;71.90;;;;;;5112510;28;20039;-76
2022/07/28 07:43:03;;;;;;;3.65;1.00;;;17.60;71.90;;;;;;5112539;28;20036;-76
2022/07/28 07:45:29;;;;;;;4.07;1.10;;;17.70;71.50;;;;;;5095410;28;20044;-76
2022/07/28 07:47:54;;;;;;;2.58;1.00;;;17.80;71.50;;;;;;5112603;28;20048;-75
2022/07/28 07:50:20;;;;;;;2.92;1.00;;;17.90;71.40;;;;;;5112381;28;20483;-77
2022/07/28 07:52:48;;;;;;;2.28;0.82;;;18.00;71.20;;;;;;5095390;28;20112;-75
2022/07/28 07:55:15;;;;;;;2.28;0.90;;;18.10;70.10;;;;;;5112253;28;20108;-75
2022/07/28 07:57:41;;;;;;;3.03;0.93;;;18.20;68.90;;;;;;5112163;28;20039;-75
2022/07/28 08:00:07;;;;;;;2.80;0.75;;;18.30;68.50;;;;;;5112299;28;20041;-77
2022/07/28 08:02:36;;;;;;;2.90;0.98;;;18.40;68.00;;;;;;5078519;28;20092;-76
2022/07/28 08:05:02;;;;;;;4.32;1.48;;;18.50;68.10;;;;;;5112163;28;20542;-75
2022/07/28 08:07:28;;;;;;;2.90;1.33;;;18.60;68.30;;;;;;5078669;28;20130;-76
2022/07/28 08:09:53;;;;;;;2.35;1.08;;;18.70;68.10;;;;;;5112193;28;20055;-76
2022/07/28 08:12:19;;;;;;;2.83;1.00;;;18.70;68.10;;;;;;5112137;28;20377;-76
2022/07/28 08:14:45;;;;;;;3.28;1.10;;;18.60;67.70;;;;;;5112113;28;20461;-75
2022/07/28 08:17:10;;;;;;;4.97;1.38;;;18.60;67.90;;;;;;5111937;28;20062;-75
2022/07/28 08:19:36;;;;;;;2.67;1.02;;;18.70;68.00;;;;;;5112179;28;20044;-76
2022/07/28 08:22:02;;;;;;;2.50;0.80;;;18.60;68.20;;;;;;5116305;28;20039;-75
2022/07/28 08:24:27;;;;;;;2.22;1.05;;;18.60;66.90;;;;;;5117540;28;20119;-77
2022/07/28 08:26:53;;;;;;;3.45;1.13;;;18.60;67.10;;;;;;5099302;28;20054;-77
2022/07/28 08:29:19;;;;;;;2.05;1.17;;;18.80;67.30;;;;;;5117290;28;20476;-76
2022/07/28 08:31:44;;;;;;;3.03;1.00;;;18.90;67.40;;;;;;5082156;28;20082;-77
2022/07/28 08:34:10;;;;;;;3.38;1.10;;;18.90;67.00;;;;;;5116096;28;20036;-76
2022/07/28 08:36:36;;;;;;;3.40;1.17;;;19.10;66.90;;;;;;5116071;28;20040;-75
2022/07/28 08:39:02;;;;;;;6.30;1.20;;;19.20;66.10;;;;;;5082386;28;20464;-75
2022/07/28 08:41:58;;;;;;;6.22;1.25;;;19.30;65.80;;;;;;5082395;28;20051;-75
2022/07/28 08:44:29;;;;;;;3.38;0.90;;;19.40;64.90;;;;;;5055664;28;20406;-76
2022/07/28 08:46:56;;;;;;;3.88;1.10;;;19.50;65.00;;;;;;5116056;28;20503;-76
2022/07/28 08:49:22;;;;;;;3.42;1.13;;;19.60;65.10;;;;;;5115825;28;20042;-75
2022/07/28 08:51:48;;;;;;;2.80;0.90;;;19.70;64.10;;;;;;5098704;28;20039;-77
2022/07/28 08:54:26;;;;;;;1.80;0.80;;;19.70;62.80;;;;;;5116043;28;20040;-76
2022/07/28 08:56:53;;;;;;;4.53;1.15;;;19.90;63.60;;;;;;5115669;28;20108;-75
2022/07/28 08:59:20;;;;;;;3.95;0.98;;;19.90;63.20;;;;;;5115703;28;20100;-76
2022/07/28 09:01:46;;;;;;;3.95;1.13;;;19.80;63.50;;;;;;5115914;28;20441;-77
2022/07/28 09:04:13;;;;;;;3.60;1.00;;;19.80;63.00;;;;;;5098545;28;20040;-77
2022/07/28 09:06:41;;;;;;;4.07;1.00;;;19.70;62.30;;;;;;5115674;28;20122;-75
2022/07/28 09:09:10;;;;;;;5.47;1.10;;;19.60;61.90;;;;;;5098655;28;20065;-76
2022/07/28 09:11:37;;;;;;;1.85;0.90;;;19.50;63.00;;;;;;5081417;28;20039;-74
2022/07/28 09:14:03;;;;;;;6.90;1.10;;;19.50;63.60;;;;;;5115668;28;20036;-76
2022/07/28 09:16:29;;;;;;;2.83;0.90;;;19.40;63.40;;;;;;5081227;28;20039;-74
2022/07/28 09:18:55;;;;;;;3.40;1.00;;;19.40;63.60;;;;;;5115685;28;20039;-76
2022/07/28 09:21:21;;;;;;;2.58;0.90;;;19.40;63.90;;;;;;5115466;28;20527;-75
2022/07/28 09:23:48;;;;;;;2.50;0.98;;;19.30;64.50;;;;;;5115332;28;20075;-76
2022/07/28 09:26:15;;;;;;;2.25;1.00;;;19.20;64.30;;;;;;5115071;28;20043;-76
2022/07/28 09:28:55;;;;;;;1.85;0.90;;;19.20;64.30;;;;;;5116359;28;20069;-75
2022/07/28 09:31:23;;;;;;;2.28;0.90;;;19.10;64.20;;;;;;5081267;28;20083;-77
2022/07/28 09:34:03;;;;;;;3.80;0.90;;;19.00;64.10;;;;;;5097980;28;20050;-77
2022/07/28 09:36:37;;;;;;;5.03;1.10;;;18.90;63.70;;;;;;5115024;28;20412;-76
2022/07/28 09:39:03;;;;;;;3.30;0.93;;;18.90;63.90;;;;;;5115276;28;20047;-75
2022/07/28 09:41:48;;;;;;;3.63;0.82;;;18.90;64.40;;;;;;5114767;28;20165;-75
2022/07/28 09:44:22;;;;;;;3.60;1.00;;;18.80;64.50;;;;;;5115074;28;20048;-77
2022/07/28 09:46:48;;;;;;;4.97;1.30;;;18.80;64.50;;;;;;5097658;28;20035;-75
2022/07/28 09:49:14;;;;;;;3.67;0.98;;;18.80;64.80;;;;;;5097659;28;20050;-75
2022/07/28 09:51:40;;;;;;;1.52;0.95;;;18.80;64.80;;;;;;5114678;28;20043;-77
2022/07/28 09:54:08;;;;;;;4.78;1.30;;;18.70;64.60;;;;;;5114526;28;20062;-76
2022/07/28 09:56:38;;;;;;;4.03;1.17;;;18.80;64.80;;;;;;5080480;28;20044;-76
2022/07/28 09:59:04;;;;;;;2.72;1.10;;;18.80;65.20;;;;;;5114505;28;20140;-77
2022/07/28 10:01:30;;;;;;;6.10;1.30;;;18.80;65.50;;;;;;5114411;28;20075;-75
2022/07/28 10:03:57;;;;;;;5.45;1.52;;;18.80;65.70;;;;;;5115603;28;20075;-76
2022/07/28 10:06:33;;;;;;;2.78;1.08;;;18.70;65.70;;;;;;5114578;28;20070;-77
2022/07/28 10:09:01;;;;;;;2.17;1.10;;;18.70;65.60;;;;;;5080393;28;20043;-75
2022/07/28 10:11:28;;;;;;;4.10;1.40;;;18.80;65.80;;;;;;5097444;28;20399;-78
2022/07/28 10:13:57;;;;;;;5.18;1.35;;;18.80;65.60;;;;;;5080280;28;20087;-75
2022/07/28 10:16:25;;;;;;;2.95;1.40;;;18.90;65.30;;;;;;5113924;28;20451;-76
2022/07/28 10:18:51;;;;;;;2.35;1.20;;;18.90;65.10;;;;;;5097406;28;20078;-76
2022/07/28 10:21:19;;;;;;;1.75;1.05;;;18.80;65.20;;;;;;5097034;28;20122;-76
2022/07/28 10:24:11;;;;;;;2.92;1.63;;;18.80;64.30;;;;;;5114276;28;20146;-76
2022/07/28 10:26:41;;;;;;;2.13;1.85;;;18.80;64.70;;;;;;5102554;28;20526;-73
2022/07/28 10:29:14;;;;;;;2.22;1.08;;;18.70;64.50;;;;;;5096775;28;20061;-77
2022/07/28 10:31:42;;;;;;;2.92;1.20;;;18.70;64.80;;;;;;5113875;28;20083;-76
2022/07/28 10:34:13;;;;;;;2.53;1.05;;;18.60;65.00;;;;;;5113791;28;20040;-75
2022/07/28 10:36:40;;;;;;;2.60;1.80;;;18.60;65.40;;;;;;5113635;28;20086;-76
2022/07/28 10:39:14;;;;;;;2.67;1.30;;;18.60;65.70;;;;;;5096921;28;20032;-76
2022/07/28 10:41:41;;;;;;;;;;;18.60;65.90;;;;;;5115408;28;20035;-76
2022/07/28 10:44:08;;;;;;;2.85;1.15;;;18.60;65.80;;;;;;5095761;28;19915;-75
2022/07/28 10:46:36;;;;;;;2.92;1.58;;;18.60;65.60;;;;;;5096454;28;20097;-76
2022/07/28 10:49:02;;;;;;;3.05;1.67;;;18.60;65.60;;;;;;5079643;28;20054;-77
2022/07/28 10:51:28;;;;;;;5.72;1.45;;;18.60;65.50;;;;;;5113693;28;20054;-76
2022/07/28 10:54:09;;;;;;;2.00;1.30;;;18.70;65.40;;;;;;5113672;28;20040;-77
2022/07/28 10:56:56;;;;;;;3.15;1.25;;;18.70;65.80;;;;;;5113412;28;20066;-76
2022/07/28 11:00:00;;;;;;;2.70;1.30;;;18.70;65.70;;;;;;5096379;28;20035;-77
2022/07/28 11:03:00;;;;;;;6.00;1.38;;;18.90;65.80;;;;;;5113543;28;20128;-75
2022/07/28 11:05:34;;;;;;;2.85;1.33;;;19.00;65.10;;;;;;5036865;28;20040;-75
2022/07/28 11:08:19;;;;;;;4.30;1.13;;;19.30;65.30;;;;;;5113408;28;20179;-74
2022/07/28 11:10:48;;;;;;;2.17;1.10;;;19.50;61.00;;;;;;5095980;28;20050;-75
2022/07/28 11:13:43;;;;;;;2.28;0.90;;;19.70;63.20;;;;;;5096075;28;20043;-77
2022/07/28 11:16:11;;;;;;;2.13;1.38;;;20.10;62.10;;;;;;5058009;28;20083;-75
2022/07/28 11:19:02;;;;;;;2.30;1.20;;;20.40;61.00;;;;;;5079065;28;20035;-75
2022/07/28 11:21:28;;;;;;;3.35;1.02;;;20.60;58.70;;;;;;5112894;28;20039;-75
2022/07/28 11:23:55;;;;;;;3.92;1.35;;;20.90;58.00;;;;;;5095810;28;20040;-75
2022/07/28 11:26:23;;;;;;;2.42;1.42;;;21.10;57.80;;;;;;5112758;28;20491;-75
2022/07/28 11:29:05;;;;;;;3.53;1.05;;;21.10;55.30;;;;;;5095527;28;20559;-77
2022/07/28 11:31:51;;;;;;;2.13;1.00;;;21.00;56.60;;;;;;5112746;28;20510;-75
2022/07/28 11:34:22;;;;;;;5.32;2.42;;;21.00;55.70;;;;;;5065189;28;20055;-76
2022/07/28 11:37:03;;;;;;;5.63;1.40;;;20.80;56.90;;;;;;5095467;28;20134;-75
2022/07/28 11:39:33;;;;;;;3.42;1.48;;;20.40;56.30;;;;;;5095881;28;20506;-76
2022/07/28 11:42:19;;;;;;;4.25;1.40;;;20.30;58.00;;;;;;5112587;28;20078;-76
2022/07/28 11:44:45;;;;;;;3.47;1.70;;;20.30;58.70;;;;;;5095757;28;20050;-76
2022/07/28 11:47:19;;;;;;;2.83;1.30;;;20.30;59.40;;;;;;5095706;28;20395;-76
2022/07/28 11:50:04;;;;;;;2.67;0.90;;;20.30;59.60;;;;;;5095443;28;20054;-76
2022/07/28 11:52:30;;;;;;;2.40;1.10;;;20.20;59.60;;;;;;5112612;28;20513;-74
2022/07/28 11:54:56;;;;;;;1.83;0.90;;;20.20;59.40;;;;;;5112106;28;20043;-76
2022/07/28 11:57:24;;;;;;;3.47;1.13;;;20.20;59.90;;;;;;5095362;28;20108;-76
2022/07/28 11:59:53;;;;;;;1.80;1.13;;;20.30;59.50;;;;;;5112275;28;20036;-75
2022/07/28 12:02:27;;;;;;;2.55;1.10;;;20.20;59.40;;;;;;5112179;28;20118;-75
2022/07/28 12:04:59;;;;;;;2.05;1.05;;;20.20;58.90;;;;;;5095171;28;20176;-75
2022/07/28 12:07:32;;;;;;;3.05;1.02;;;20.30;60.10;;;;;;5095446;28;20063;-76
2022/07/28 12:09:59;;;;;;;1.33;0.90;;;20.40;59.30;;;;;;5095081;28;20042;-75
2022/07/28 12:12:26;;;;;;;1.63;0.88;;;20.40;59.00;;;;;;5078389;28;20084;-75
2022/07/28 12:14:56;;;;;;;2.45;0.90;;;20.20;55.80;;;;;;5095059;28;20061;-76
2022/07/28 12:17:31;;;;;;;3.47;1.20;;;20.10;56.40;;;;;;5111998;28;20039;-76
2022/07/28 12:20:04;;;;;;;2.88;1.20;;;20.00;56.30;;;;;;5095113;28;20088;-76
2022/07/28 12:22:29;;;;;;;2.85;1.00;;;20.00;57.60;;;;;;5078371;28;20039;-76
2022/07/28 12:24:58;;;;;;;1.65;0.93;;;20.00;57.70;;;;;;5078144;28;20044;-76
2022/07/28 12:27:27;;;;;;;3.03;1.23;;;20.00;58.60;;;;;;5112264;28;20399;-76
2022/07/28 12:29:58;;;;;;;2.65;0.98;;;20.10;57.40;;;;;;5074561;28;20508;-76
2022/07/28 12:32:32;;;;;;;2.40;1.00;;;20.00;57.40;;;;;;5108607;28;20048;-75
2022/07/28 12:34:58;;;;;;;2.13;0.90;;;20.10;56.70;;;;;;5108730;28;20388;-75
2022/07/28 12:37:24;;;;;;;3.45;0.82;;;20.00;57.60;;;;;;5074635;28;20480;-74
2022/07/28 12:39:50;;;;;;;3.72;1.00;;;20.00;57.60;;;;;;5074982;28;20036;-76
2022/07/28 12:42:16;;;;;;;2.83;0.82;;;20.00;57.90;;;;;;5108516;28;20127;-74
2022/07/28 12:44:45;;;;;;;2.22;0.90;;;20.00;57.90;;;;;;5108805;28;20119;-75
2022/07/28 12:47:13;;;;;;;1.88;1.00;;;20.00;57.70;;;;;;5074934;28;20048;-75
2022/07/28 12:49:41;;;;;;;2.65;1.13;;;20.00;58.00;;;;;;5108415;28;20035;-76
2022/07/28 12:52:16;;;;;;;7.63;1.52;;;20.00;58.20;;;;;;5091458;28;20047;-76
2022/07/28 12:54:42;;;;;;;3.00;1.02;;;20.00;58.50;;;;;;5108642;28;20198;-74
2022/07/28 12:57:08;;;;;;;2.13;0.90;;;20.00;58.40;;;;;;5108247;28;20484;-75
2022/07/28 12:59:35;;;;;;;1.90;0.90;;;20.10;58.60;;;;;;5108495;28;20048;-76